Time;durP1;ratioP1;P1;durP2;ratioP2;P2;SDS_P1;SDS_P2;PMS_P1;PMS_P2;Temp;Humidity;BMP_temperature;BMP_pressure;BME280_temperature;BME280_humidity;BME280_pressure;Samples;Min_cycle;Max_cycle;Signal;HPM_P1;HPM_P2
2022/04/19 00:00:54;;;;;;;2.78;2.30;;;4.00;99.90;;;;;;5115156;28;20048;-74
2022/04/19 00:03:20;;;;;;;3.90;2.42;;;3.80;99.90;;;;;;5115651;28;20024;-74
2022/04/19 00:05:47;;;;;;;2.85;2.53;;;3.70;99.90;;;;;;5119498;28;20099;-74
2022/04/19 00:08:14;;;;;;;3.42;2.47;;;3.60;99.90;;;;;;5118050;28;20022;-74
2022/04/19 00:10:41;;;;;;;3.65;2.20;;;3.60;99.90;;;;;;5116874;28;20028;-74
2022/04/19 00:13:09;;;;;;;3.22;2.45;;;3.60;99.90;;;;;;5117628;28;20048;-74
2022/04/19 00:15:38;;;;;;;4.60;2.40;;;3.70;99.90;;;;;;5117124;28;20016;-74
2022/04/19 00:18:05;;;;;;;2.45;2.20;;;3.80;99.90;;;;;;5116069;28;20080;-74
2022/04/19 00:20:32;;;;;;;2.78;2.47;;;3.60;99.90;;;;;;5116065;28;20043;-74
2022/04/19 00:22:58;;;;;;;2.83;2.38;;;3.50;99.90;;;;;;5116199;28;20035;-74
2022/04/19 00:25:24;;;;;;;3.15;2.80;;;3.50;99.90;;;;;;5116708;28;20034;-74
2022/04/19 00:27:50;;;;;;;3.15;2.70;;;3.50;99.90;;;;;;5116337;28;20461;-74
2022/04/19 00:30:16;;;;;;;4.32;2.58;;;3.50;99.90;;;;;;5118331;28;20049;-74
2022/04/19 00:32:42;;;;;;;2.97;2.15;;;3.40;99.90;;;;;;5117298;28;20027;-74
2022/04/19 00:35:10;;;;;;;5.07;2.33;;;3.40;99.90;;;;;;5118824;28;20480;-74
2022/04/19 00:37:37;;;;;;;4.80;2.58;;;3.30;99.90;;;;;;5118337;28;20031;-74
2022/04/19 00:40:06;;;;;;;3.78;2.60;;;3.30;99.90;;;;;;5117594;28;20102;-74
2022/04/19 00:42:32;;;;;;;5.20;2.25;;;3.30;99.90;;;;;;5116033;28;20103;-74
2022/04/19 00:45:02;;;;;;;3.10;2.30;;;3.30;99.90;;;;;;5115631;28;20092;-74
2022/04/19 00:47:29;;;;;;;2.90;2.22;;;3.50;99.90;;;;;;5116383;28;20365;-74
2022/04/19 00:49:55;;;;;;;4.30;2.85;;;3.40;99.90;;;;;;5115654;28;20028;-75
2022/04/19 00:52:21;;;;;;;3.10;2.30;;;3.30;99.90;;;;;;5116551;28;20023;-74
2022/04/19 00:54:47;;;;;;;3.42;2.42;;;3.20;99.90;;;;;;5116813;28;20020;-74
2022/04/19 00:57:14;;;;;;;4.20;2.53;;;3.10;99.90;;;;;;5116592;28;20075;-74
2022/04/19 00:59:43;;;;;;;2.47;2.13;;;3.00;99.90;;;;;;5116625;28;20030;-74
2022/04/19 01:02:09;;;;;;;5.18;2.33;;;3.00;99.90;;;;;;5118934;28;20155;-74
2022/04/19 01:04:39;;;;;;;3.20;2.17;;;3.00;99.90;;;;;;5116288;28;20198;-74
2022/04/19 01:07:06;;;;;;;5.22;2.80;;;2.90;99.90;;;;;;5118944;28;20087;-74
2022/04/19 01:09:32;;;;;;;2.40;2.20;;;3.00;99.90;;;;;;5117751;28;20024;-74
2022/04/19 01:14:45;;;;;;;3.90;2.33;;;3.00;99.90;;;;;;5117452;28;20108;-73
2022/04/19 01:17:11;;;;;;;2.80;2.10;;;3.00;99.90;;;;;;5118466;28;20062;-74
2022/04/19 01:19:38;;;;;;;3.03;2.33;;;2.90;99.90;;;;;;5099277;28;20019;-74
2022/04/19 01:22:05;;;;;;;3.35;2.50;;;2.80;99.90;;;;;;5116502;28;20020;-74
2022/04/19 01:24:32;;;;;;;2.85;2.03;;;2.80;99.90;;;;;;5118962;28;20020;-74
2022/04/19 01:26:58;;;;;;;5.10;2.72;;;2.80;99.90;;;;;;5120592;28;20027;-74
2022/04/19 01:29:25;;;;;;;3.83;2.30;;;2.80;99.90;;;;;;5116820;28;20031;-74
2022/04/19 01:31:52;;;;;;;3.20;2.50;;;2.70;99.90;;;;;;5115758;28;20079;-74
2022/04/19 01:34:21;;;;;;;4.68;3.13;;;2.70;99.90;;;;;;5115101;28;20476;-74
2022/04/19 01:36:47;;;;;;;4.93;3.22;;;2.70;99.90;;;;;;5115563;28;20032;-74
2022/04/19 01:39:13;;;;;;;5.97;2.42;;;2.70;99.90;;;;;;5116141;28;20024;-74
2022/04/19 01:41:39;;;;;;;3.13;2.80;;;2.70;99.90;;;;;;5115031;28;20120;-74
2022/04/19 01:44:06;;;;;;;5.20;3.28;;;2.70;99.90;;;;;;5117146;28;20087;-74
2022/04/19 01:46:32;;;;;;;3.45;2.75;;;1.20;99.90;;;;;;5116045;28;20043;-74
2022/04/19 01:48:59;;;;;;;5.07;2.67;;;2.70;99.90;;;;;;5115268;28;20086;-74
2022/04/19 01:51:25;;;;;;;3.60;2.83;;;2.70;99.90;;;;;;5114722;28;20027;-74
2022/04/19 01:53:51;;;;;;;2.72;2.53;;;2.70;99.90;;;;;;5114918;28;20231;-74
2022/04/19 01:56:18;;;;;;;3.28;2.47;;;2.70;99.90;;;;;;5114454;28;20536;-74
2022/04/19 01:58:48;;;;;;;5.72;2.70;;;2.60;99.90;;;;;;5115125;28;20032;-73
2022/04/19 02:01:14;;;;;;;3.88;2.33;;;2.50;99.90;;;;;;5113016;28;20028;-74
2022/04/19 02:03:40;;;;;;;2.92;2.42;;;2.40;99.90;;;;;;5113896;28;20510;-74
2022/04/19 02:06:11;;;;;;;4.30;2.85;;;2.40;99.90;;;;;;5113425;28;20036;-74
2022/04/19 02:08:37;;;;;;;3.85;2.30;;;2.30;99.90;;;;;;5114138;28;20234;-74
2022/04/19 02:11:04;;;;;;;3.80;2.50;;;2.20;99.90;;;;;;5114048;28;20032;-73
2022/04/19 02:13:32;;;;;;;6.47;1.88;;;2.20;99.90;;;;;;5114236;28;20253;-74
2022/04/19 02:15:58;;;;;;;1.83;1.70;;;2.10;99.90;;;;;;5114453;28;20030;-74
2022/04/19 02:18:25;;;;;;;4.18;2.83;;;2.00;99.90;;;;;;5114325;28;20344;-74
2022/04/19 02:20:51;;;;;;;4.18;2.50;;;1.90;99.90;;;;;;5113244;28;20032;-74
2022/04/19 02:23:17;;;;;;;3.47;2.10;;;1.90;99.90;;;;;;5114339;28;20020;-74
2022/04/19 02:25:43;;;;;;;2.72;2.50;;;1.80;99.90;;;;;;5111900;28;20506;-75
2022/04/19 02:28:10;;;;;;;2.25;1.95;;;1.90;99.90;;;;;;5112894;28;20356;-74
2022/04/19 02:30:36;;;;;;;5.03;2.83;;;1.80;99.90;;;;;;5113539;28;20027;-74
2022/04/19 02:33:02;;;;;;;5.47;3.10;;;1.80;99.90;;;;;;5114260;28;20035;-74
2022/04/19 02:35:28;;;;;;;4.30;2.67;;;1.90;99.90;;;;;;5113630;28;20060;-74
2022/04/19 02:37:56;;;;;;;3.28;2.65;;;1.80;99.90;;;;;;5113283;28;20022;-74
2022/04/19 02:40:23;;;;;;;3.53;2.67;;;1.80;99.90;;;;;;5112925;28;20479;-74
2022/04/19 02:42:50;;;;;;;3.58;2.38;;;1.80;99.90;;;;;;5113247;28;20019;-74
2022/04/19 02:45:19;;;;;;;2.75;2.25;;;1.80;99.90;;;;;;5113967;28;20011;-74
2022/04/19 02:47:47;;;;;;;2.67;2.13;;;1.80;99.90;;;;;;5112997;28;20073;-74
2022/04/19 02:50:13;;;;;;;3.30;2.55;;;1.90;99.90;;;;;;5112201;28;20095;-74
2022/04/19 02:52:38;;;;;;;2.95;2.50;;;1.90;99.90;;;;;;5113425;28;20066;-74
2022/04/19 02:55:06;;;;;;;7.72;2.78;;;1.90;99.90;;;;;;5112156;28;20019;-74
2022/04/19 02:57:33;;;;;;;5.82;2.50;;;;;;;;;;5113442;28;20016;-74
2022/04/19 02:59:59;;;;;;;2.97;2.13;;;1.70;99.90;;;;;;5117190;28;20024;-74
2022/04/19 03:02:25;;;;;;;7.22;3.20;;;1.70;99.90;;;;;;5115891;28;20024;-76
2022/04/19 03:04:51;;;;;;;2.60;2.35;;;1.70;99.90;;;;;;5116720;28;20399;-74
2022/04/19 03:07:17;;;;;;;4.13;3.05;;;1.60;99.90;;;;;;5117094;28;20028;-74
2022/04/19 03:09:43;;;;;;;2.83;2.60;;;1.60;99.90;;;;;;5117079;28;20012;-74
2022/04/19 03:12:15;;;;;;;2.58;2.38;;;1.60;99.90;;;;;;5115109;28;20507;-74
2022/04/19 03:14:41;;;;;;;3.70;2.35;;;1.50;99.90;;;;;;5115900;28;20024;-74
2022/04/19 03:17:07;;;;;;;4.60;2.72;;;1.60;99.90;;;;;;5116115;27;20055;-74
2022/04/19 03:19:33;;;;;;;5.43;2.75;;;1.60;99.90;;;;;;5116051;28;20054;-74
2022/04/19 03:21:59;;;;;;;2.53;2.33;;;1.50;99.90;;;;;;5116319;28;20055;-74
2022/04/19 03:29:54;;;;;;;5.13;3.58;;;1.30;99.90;;;;;;5117211;28;20072;-74
2022/04/19 03:32:19;;;;;;;3.35;2.75;;;1.30;99.90;;;;;;5115355;28;20071;-74
2022/04/19 03:34:46;;;;;;;3.13;2.67;;;1.20;99.90;;;;;;5116700;28;20516;-74
2022/04/19 03:37:12;;;;;;;2.35;2.15;;;1.20;99.90;;;;;;5116075;28;20023;-74
2022/04/19 03:39:38;;;;;;;4.25;2.45;;;1.10;99.90;;;;;;5116547;28;20023;-74
2022/04/19 03:42:07;;;;;;;9.07;4.10;;;1.10;99.90;;;;;;5117092;28;20030;-74
2022/04/19 03:44:33;;;;;;;9.98;2.92;;;1.30;99.90;;;;;;5115406;28;20020;-73
2022/04/19 03:47:07;;;;;;;4.85;2.70;;;1.30;99.90;;;;;;5114527;27;20042;-74
2022/04/19 03:49:34;;;;;;;6.18;3.58;;;1.40;99.90;;;;;;5114875;28;20020;-74
2022/04/19 03:52:01;;;;;;;3.35;2.88;;;1.40;99.90;;;;;;5112670;28;20384;-74
2022/04/19 03:54:26;;;;;;;3.63;2.88;;;1.50;99.90;;;;;;5114919;28;20020;-75
2022/04/19 03:56:52;;;;;;;3.25;3.00;;;1.50;99.90;;;;;;5115073;28;20030;-74
2022/04/19 03:59:18;;;;;;;2.63;2.42;;;1.40;99.90;;;;;;5115012;28;20015;-74
2022/04/19 04:01:45;;;;;;;2.55;2.20;;;1.40;99.90;;;;;;5115023;27;20023;-74
2022/04/19 04:04:11;;;;;;;2.58;2.17;;;1.30;99.90;;;;;;5113559;28;20067;-74
2022/04/19 04:06:37;;;;;;;3.22;2.55;;;1.30;99.90;;;;;;5116749;28;20051;-74
2022/04/19 04:09:04;;;;;;;3.75;2.72;;;1.20;99.90;;;;;;5115089;28;20047;-74
2022/04/19 04:11:30;;;;;;;4.03;2.88;;;1.20;99.90;;;;;;5115528;28;20043;-74
2022/04/19 04:13:55;;;;;;;3.72;2.53;;;1.20;99.90;;;;;;5116672;28;20079;-74
2022/04/19 04:16:21;;;;;;;3.10;2.67;;;1.10;99.90;;;;;;5116975;28;20107;-74
2022/04/19 04:18:47;;;;;;;3.80;2.38;;;1.00;99.90;;;;;;5114790;28;20087;-74
2022/04/19 04:21:13;;;;;;;3.50;2.90;;;1.00;99.90;;;;;;5114314;28;20027;-74
2022/04/19 04:23:38;;;;;;;2.65;2.45;;;1.00;99.90;;;;;;5114635;28;20080;-74
2022/04/19 04:26:04;;;;;;;2.50;2.28;;;0.90;99.90;;;;;;5115003;28;20027;-74
2022/04/19 04:28:30;;;;;;;3.25;2.38;;;0.80;99.90;;;;;;5114822;28;20035;-74
2022/04/19 04:30:55;;;;;;;5.25;3.25;;;0.80;99.90;;;;;;5114617;28;20406;-74
2022/04/19 04:33:21;;;;;;;4.18;3.10;;;0.80;99.90;;;;;;5113226;28;20031;-74
2022/04/19 04:35:47;;;;;;;3.65;2.80;;;0.90;99.90;;;;;;5113737;28;20065;-74
2022/04/19 04:38:14;;;;;;;5.80;4.00;;;0.90;99.90;;;;;;5113827;28;20043;-74
2022/04/19 04:40:41;;;;;;;3.92;3.00;;;0.90;99.90;;;;;;5112187;28;20110;-74
2022/04/19 04:43:07;;;;;;;5.68;2.97;;;0.90;99.90;;;;;;5113353;28;20015;-74
2022/04/19 04:45:32;;;;;;;3.78;2.80;;;1.10;99.90;;;;;;5115395;28;20030;-74
2022/04/19 04:50:42;;;;;;;5.18;2.90;;;1.00;99.90;;;;;;5112762;28;20080;-74
2022/04/19 04:53:08;;;;;;;2.90;2.60;;;1.00;99.90;;;;;;5113217;28;20028;-74
2022/04/19 04:55:34;;;;;;;4.05;2.72;;;1.00;99.90;;;;;;5113638;28;20414;-74
2022/04/19 04:58:01;;;;;;;3.45;3.15;;;1.00;99.90;;;;;;5112908;28;20019;-74
2022/04/19 05:00:27;;;;;;;4.05;2.35;;;1.00;99.90;;;;;;5113196;28;20023;-74
2022/04/19 05:02:54;;;;;;;4.78;2.78;;;1.10;99.90;;;;;;5110978;28;20023;-74
2022/04/19 05:05:20;;;;;;;6.40;3.22;;;1.10;99.90;;;;;;5112435;28;20558;-74
2022/04/19 05:07:46;;;;;;;3.30;3.00;;;1.20;99.90;;;;;;5112774;28;20695;-74
2022/04/19 05:10:12;;;;;;;2.70;2.50;;;1.30;99.90;;;;;;5111966;28;20042;-74
2022/04/19 05:12:38;;;;;;;6.10;3.05;;;1.40;99.90;;;;;;5112081;28;20075;-74
2022/04/19 05:15:05;;;;;;;4.45;2.97;;;1.50;99.90;;;;;;5112963;28;20479;-74
2022/04/19 05:17:30;;;;;;;4.70;3.30;;;1.70;99.90;;;;;;5112053;28;20077;-74
2022/04/19 05:19:56;;;;;;;4.35;2.67;;;1.70;99.90;;;;;;5112196;28;20031;-74
2022/04/19 05:22:22;;;;;;;3.97;3.40;;;1.70;99.90;;;;;;5112464;28;20032;-75
2022/04/19 05:24:49;;;;;;;3.10;2.70;;;1.80;99.90;;;;;;5112905;28;20428;-74
2022/04/19 05:27:15;;;;;;;5.40;3.28;;;1.80;99.90;;;;;;5112566;28;20519;-74
2022/04/19 05:29:40;;;;;;;3.85;2.60;;;1.90;99.90;;;;;;5113300;28;20024;-74
2022/04/19 05:32:07;;;;;;;3.63;2.75;;;2.00;99.90;;;;;;5110463;28;20028;-74
2022/04/19 05:34:32;;;;;;;4.28;3.05;;;2.20;99.90;;;;;;5112766;28;20428;-74
2022/04/19 05:36:58;;;;;;;2.92;2.63;;;2.40;99.90;;;;;;5112585;28;20020;-74
2022/04/19 05:39:24;;;;;;;4.47;2.38;;;2.70;99.90;;;;;;5112067;28;20031;-74
2022/04/19 05:41:49;;;;;;;3.53;2.78;;;3.00;99.90;;;;;;5112498;28;20098;-74
2022/04/19 05:44:15;;;;;;;4.68;3.38;;;3.20;99.90;;;;;;5112122;28;20015;-75
2022/04/19 05:46:41;;;;;;;4.70;2.67;;;3.50;99.90;;;;;;5113586;28;20038;-75
2022/04/19 05:49:07;;;;;;;4.82;3.03;;;3.90;99.90;;;;;;5112574;28;20180;-74
2022/04/19 05:51:33;;;;;;;5.43;3.35;;;4.20;99.90;;;;;;5113769;28;20027;-75
2022/04/19 05:54:00;;;;;;;2.55;2.35;;;4.30;99.90;;;;;;5113708;28;20110;-74
2022/04/19 05:56:25;;;;;;;3.10;2.80;;;4.50;99.90;;;;;;5111346;28;20051;-74
2022/04/19 05:58:51;;;;;;;4.50;3.00;;;4.80;99.90;;;;;;5111041;28;20402;-75
2022/04/19 06:01:18;;;;;;;3.72;2.42;;;4.90;99.90;;;;;;5111380;28;20092;-75
2022/04/19 06:06:28;;;;;;;2.20;2.00;;;5.30;99.90;;;;;;5110440;28;20089;-75
2022/04/19 06:08:54;;;;;;;2.60;2.33;;;5.60;99.90;;;;;;5111563;28;20028;-74
2022/04/19 06:11:21;;;;;;;2.33;2.13;;;5.70;99.90;;;;;;5108972;28;20028;-75
2022/04/19 06:13:47;;;;;;;3.08;2.63;;;5.70;99.90;;;;;;5110763;28;20100;-75
2022/04/19 06:16:13;;;;;;;3.78;2.20;;;5.80;99.90;;;;;;5111058;28;20019;-74
2022/04/19 06:18:38;;;;;;;2.78;2.58;;;5.70;99.90;;;;;;5110572;28;20020;-74
2022/04/19 06:21:05;;;;;;;3.20;2.65;;;5.80;99.90;;;;;;5110834;28;20020;-75
2022/04/19 06:23:34;;;;;;;2.42;2.22;;;6.00;99.90;;;;;;5110940;28;20023;-76
2022/04/19 06:26:00;;;;;;;3.13;2.35;;;6.30;99.90;;;;;;5110900;28;20118;-74
2022/04/19 06:28:27;;;;;;;2.47;2.20;;;6.50;99.90;;;;;;5112278;28;20564;-74
2022/04/19 06:30:53;;;;;;;3.08;2.50;;;6.80;99.90;;;;;;5112694;28;20023;-74
2022/04/19 06:33:19;;;;;;;2.60;2.40;;;6.90;99.90;;;;;;5116012;28;20027;-75
2022/04/19 06:35:45;;;;;;;3.05;2.40;;;7.10;99.90;;;;;;5118221;28;20020;-74
2022/04/19 06:38:10;;;;;;;3.22;2.90;;;7.20;99.90;;;;;;5117245;28;20035;-74
2022/04/19 06:40:36;;;;;;;3.50;2.67;;;7.40;99.90;;;;;;5117183;28;20452;-74
2022/04/19 06:43:02;;;;;;;4.00;2.88;;;7.80;99.90;;;;;;5113950;28;20085;-74
2022/04/19 06:45:28;;;;;;;3.83;2.47;;;8.10;99.90;;;;;;5113696;28;20437;-75
2022/04/19 06:47:58;;;;;;;2.60;2.10;;;8.50;99.90;;;;;;5115266;28;20019;-74
2022/04/19 06:50:24;;;;;;;3.10;2.10;;;9.20;99.90;;;;;;5116442;28;20102;-75
2022/04/19 06:52:52;;;;;;;2.55;2.30;;;9.30;99.90;;;;;;5114923;28;20024;-74
2022/04/19 06:55:19;;;;;;;2.33;2.13;;;9.20;99.90;;;;;;5114117;28;20414;-74
2022/04/19 06:57:46;;;;;;;2.95;2.50;;;9.00;99.90;;;;;;5115033;28;20015;-74
2022/04/19 07:00:13;;;;;;;2.95;2.38;;;8.90;99.90;;;;;;5114215;28;20548;-74
2022/04/19 07:02:39;;;;;;;2.50;2.30;;;8.80;99.90;;;;;;5114998;28;20027;-74
2022/04/19 07:05:05;;;;;;;3.42;2.75;;;8.70;99.90;;;;;;5115105;28;20019;-74
2022/04/19 07:07:32;;;;;;;3.40;2.45;;;8.60;99.90;;;;;;5114063;27;20031;-74
2022/04/19 07:09:58;;;;;;;6.10;2.30;;;8.70;99.90;;;;;;5114605;28;20401;-74
2022/04/19 07:12:24;;;;;;;4.10;3.17;;;9.00;99.90;;;;;;5114404;28;20044;-74
2022/04/19 07:14:50;;;;;;;3.65;2.55;;;9.00;99.90;;;;;;5114051;28;20031;-74
2022/04/19 07:17:16;;;;;;;3.22;2.33;;;8.90;99.90;;;;;;5113773;28;20110;-74
2022/04/19 07:28:04;;;;;;;5.68;2.83;;;9.80;99.90;;;;;;5114092;28;20510;-74
2022/04/19 07:30:31;;;;;;;3.35;2.35;;;10.10;99.90;;;;;;5113462;28;20028;-74
2022/04/19 07:32:57;;;;;;;7.20;2.40;;;10.30;99.90;;;;;;5114198;28;20441;-75
2022/04/19 07:35:23;;;;;;;2.90;2.00;;;10.60;99.90;;;;;;5113355;28;20020;-74
2022/04/19 07:37:49;;;;;;;3.03;2.15;;;11.00;99.60;;;;;;5114200;28;20079;-75
2022/04/19 07:40:14;;;;;;;4.70;2.00;;;11.60;96.20;;;;;;5113839;28;20106;-74
2022/04/19 07:42:40;;;;;;;3.60;2.40;;;12.10;91.80;;;;;;5113543;28;20445;-74
2022/04/19 07:45:09;;;;;;;4.70;2.47;;;12.00;90.20;;;;;;5113276;28;20095;-74
2022/04/19 07:47:34;;;;;;;13.20;6.55;;;11.80;90.60;;;;;;5113788;28;20066;-74
2022/04/19 07:50:01;;;;;;;3.40;2.38;;;12.10;91.30;;;;;;5114588;28;20043;-75
2022/04/19 07:52:26;;;;;;;14.25;2.90;;;12.30;90.70;;;;;;5113998;27;20535;-75
2022/04/19 07:54:52;;;;;;;2.95;2.10;;;12.80;89.30;;;;;;5113614;28;20020;-75
2022/04/19 07:57:22;;;;;;;2.80;1.88;;;12.70;82.90;;;;;;5111626;28;20504;-74
2022/04/19 07:59:53;;;;;;;2.45;1.98;;;12.80;77.10;;;;;;5113290;28;20107;-74
2022/04/19 08:02:19;;;;;;;4.30;2.10;;;12.50;81.60;;;;;;5111847;28;20465;-75
2022/04/19 08:04:45;;;;;;;4.78;3.53;;;12.90;80.80;;;;;;5113129;28;20043;-74
2022/04/19 08:07:11;;;;;;;4.68;2.67;;;13.00;76.60;;;;;;5112657;28;20399;-74
2022/04/19 08:09:37;;;;;;;4.45;2.15;;;12.60;76.60;;;;;;5112400;28;20024;-74
2022/04/19 08:12:03;;;;;;;3.65;2.22;;;12.80;77.00;;;;;;5112959;28;20026;-74
2022/04/19 08:14:29;;;;;;;1.98;1.77;;;13.00;76.50;;;;;;5112983;28;20046;-75
2022/04/19 08:16:55;;;;;;;2.67;2.00;;;13.30;75.30;;;;;;5112336;28;20149;-75
2022/04/19 08:19:20;;;;;;;5.22;2.47;;;13.90;73.00;;;;;;5113293;28;20060;-74
2022/04/19 08:21:46;;;;;;;2.28;1.95;;;14.50;68.80;;;;;;5113572;28;20035;-74
2022/04/19 08:24:13;;;;;;;9.30;3.00;;;14.60;69.60;;;;;;5113294;28;20118;-75
2022/04/19 08:26:39;;;;;;;4.18;2.30;;;15.00;68.30;;;;;;5111943;28;20118;-75
2022/04/19 08:29:05;;;;;;;3.75;1.73;;;15.40;67.30;;;;;;5112800;28;20062;-75
2022/04/19 08:31:30;;;;;;;4.25;2.55;;;15.30;64.90;;;;;;5112839;28;20032;-75
2022/04/19 08:33:56;;;;;;;5.25;2.50;;;15.10;66.70;;;;;;5112693;28;20077;-74
2022/04/19 08:36:22;;;;;;;6.35;2.53;;;15.10;67.10;;;;;;5113594;28;20028;-75
2022/04/19 08:38:47;;;;;;;2.08;1.88;;;14.60;65.40;;;;;;5113180;28;20020;-75
2022/04/19 08:41:17;;;;;;;4.07;2.88;;;14.70;67.50;;;;;;5112580;28;20030;-74
2022/04/19 08:43:45;;;;;;;4.82;2.90;;;14.50;65.40;;;;;;5113682;28;20018;-75
2022/04/19 08:46:11;;;;;;;3.15;2.78;;;14.70;65.70;;;;;;5113390;28;20084;-74
2022/04/19 08:48:39;;;;;;;6.13;2.70;;;15.20;65.10;;;;;;5113703;28;20449;-74
2022/04/19 08:51:08;;;;;;;4.15;2.63;;;15.30;63.40;;;;;;5112664;28;20032;-74
2022/04/19 08:59:06;;;;;;;3.45;2.38;;;15.80;62.50;;;;;;5111659;28;20088;-75
2022/04/19 09:01:32;;;;;;;5.47;2.60;;;16.20;61.20;;;;;;5112880;28;20106;-74
2022/04/19 09:03:58;;;;;;;4.38;2.35;;;15.80;61.50;;;;;;5113133;28;20459;-74
2022/04/19 09:06:53;;;;;;;4.95;3.20;;;15.90;62.20;;;;;;5110643;28;20051;-74
2022/04/19 09:09:24;;;;;;;6.13;3.00;;;15.50;62.40;;;;;;5112294;28;20168;-74
2022/04/19 09:11:54;;;;;;;7.35;2.45;;;15.40;63.50;;;;;;5111359;28;20043;-74
2022/04/19 09:14:23;;;;;;;4.00;2.38;;;14.90;63.60;;;;;;5112103;28;20595;-74
2022/04/19 09:17:05;;;;;;;3.20;2.33;;;15.00;63.80;;;;;;5111769;28;20034;-75
2022/04/19 09:19:31;;;;;;;5.25;3.15;;;15.10;62.70;;;;;;5112155;28;20372;-74
2022/04/19 09:21:57;;;;;;;3.75;2.03;;;14.60;64.00;;;;;;5111719;28;20024;-74
2022/04/19 09:24:23;;;;;;;10.20;2.30;;;14.60;62.70;;;;;;5111708;28;20408;-75
2022/04/19 09:26:50;;;;;;;4.13;2.63;;;15.00;63.90;;;;;;5112147;28;20035;-74
2022/04/19 09:29:21;;;;;;;4.47;2.60;;;14.90;61.80;;;;;;5112537;28;20015;-74
2022/04/19 09:31:50;;;;;;;2.95;2.50;;;15.30;61.20;;;;;;5111404;28;20489;-75
2022/04/19 09:34:34;;;;;;;3.78;2.60;;;15.30;63.10;;;;;;5111254;27;20016;-74
2022/04/19 09:37:11;;;;;;;4.07;2.95;;;15.30;62.70;;;;;;5109890;28;20032;-74
2022/04/19 09:39:41;;;;;;;4.88;2.70;;;15.40;62.70;;;;;;5111547;28;20027;-74
2022/04/19 09:42:15;;;;;;;4.05;2.50;;;15.70;63.20;;;;;;5111651;28;20053;-74
2022/04/19 09:44:43;;;;;;;6.53;2.40;;;15.90;62.30;;;;;;5111312;28;20012;-74
2022/04/19 09:47:11;;;;;;;3.47;2.90;;;15.80;60.70;;;;;;5111945;28;20040;-74
2022/04/19 09:49:54;;;;;;;6.65;2.75;;;15.30;62.40;;;;;;5111429;28;20024;-74
2022/04/19 09:52:22;;;;;;;3.17;2.53;;;15.30;62.70;;;;;;5112615;28;20023;-74
2022/04/19 09:55:05;;;;;;;4.15;2.15;;;15.70;63.00;;;;;;5111099;28;20027;-75
2022/04/19 09:57:36;;;;;;;4.05;2.60;;;15.70;64.30;;;;;;5111365;28;20016;-74
2022/04/19 10:00:05;;;;;;;7.32;2.45;;;16.10;62.20;;;;;;5111957;28;20046;-74
2022/04/19 10:08:19;;;;;;;4.60;2.80;;;15.50;62.80;;;;;;5115108;28;20124;-74
2022/04/19 10:10:50;;;;;;;6.15;2.28;;;15.70;65.50;;;;;;5115345;28;20425;-75
2022/04/19 10:13:18;;;;;;;4.95;3.15;;;16.00;61.30;;;;;;5114914;28;20043;-74
2022/04/19 10:15:44;;;;;;;3.92;3.20;;;16.00;60.90;;;;;;5116050;28;20020;-75
2022/04/19 10:18:10;;;;;;;7.35;2.70;;;16.20;61.30;;;;;;5113798;28;20051;-75
2022/04/19 10:20:41;;;;;;;4.88;2.67;;;16.60;61.60;;;;;;5114388;28;20388;-74
2022/04/19 10:23:09;;;;;;;5.25;2.35;;;17.10;59.80;;;;;;5115657;28;20015;-74
2022/04/19 10:25:46;;;;;;;3.85;2.63;;;16.60;60.40;;;;;;5115615;28;20479;-74
2022/04/19 10:28:26;;;;;;;5.18;2.67;;;16.40;62.50;;;;;;5116496;28;20027;-74
2022/04/19 10:30:53;;;;;;;4.60;3.03;;;16.20;63.90;;;;;;5113884;28;20170;-74
2022/04/19 10:33:38;;;;;;;6.80;2.72;;;16.00;63.10;;;;;;5116296;28;20088;-74
2022/04/19 10:36:21;;;;;;;5.35;2.65;;;16.00;63.00;;;;;;5114597;28;20020;-74
2022/04/19 10:39:15;;;;;;;5.20;2.75;;;16.30;62.50;;;;;;5115808;28;20047;-74
2022/04/19 10:42:02;;;;;;;9.98;2.80;;;16.40;62.40;;;;;;5114808;28;20067;-74
2022/04/19 10:44:29;;;;;;;4.72;2.50;;;17.00;61.20;;;;;;5115086;28;20105;-75
2022/04/19 10:47:17;;;;;;;3.20;2.10;;;17.00;62.40;;;;;;5114286;28;20032;-74
2022/04/19 10:50:02;;;;;;;4.78;2.25;;;17.40;62.40;;;;;;5115302;28;20429;-74
2022/04/19 10:52:37;;;;;;;3.50;2.20;;;17.50;59.80;;;;;;5114330;28;20039;-74
2022/04/19 10:55:17;;;;;;;3.42;2.40;;;17.70;61.00;;;;;;5114064;28;20020;-74
2022/04/19 11:01:05;;;;;;;4.53;2.92;;;17.60;59.00;;;;;;5115410;28;20077;-74
2022/04/19 11:03:37;;;;;;;3.72;2.28;;;17.40;60.70;;;;;;5071348;28;20036;-74
2022/04/19 11:06:25;;;;;;;2.50;2.25;;;17.80;59.50;;;;;;5115291;28;20042;-74
2022/04/19 11:09:06;;;;;;;3.55;2.13;;;17.50;62.00;;;;;;5116376;28;20028;-74
2022/04/19 11:11:47;;;;;;;3.22;2.28;;;17.80;58.10;;;;;;5114983;28;20486;-74
2022/04/19 11:14:20;;;;;;;6.30;2.85;;;17.90;58.30;;;;;;5114408;28;20123;-74
2022/04/19 11:17:13;;;;;;;4.03;2.55;;;18.20;57.00;;;;;;5114662;28;20074;-75
2022/04/19 11:19:50;;;;;;;3.88;2.13;;;18.30;60.50;;;;;;5111035;28;20198;-75
2022/04/19 11:22:29;;;;;;;10.05;2.38;;;18.30;58.20;;;;;;5113550;28;20094;-74
2022/04/19 11:25:06;;;;;;;2.22;1.75;;;18.00;61.20;;;;;;5115991;28;20106;-74
2022/04/19 11:27:53;;;;;;;5.70;2.58;;;18.20;57.80;;;;;;5114442;28;20036;-74
2022/04/19 11:30:25;;;;;;;5.87;2.40;;;18.20;57.70;;;;;;5113385;28;20035;-74
2022/04/19 11:32:52;;;;;;;4.72;2.30;;;18.40;57.40;;;;;;5115124;28;20487;-74
2022/04/19 11:35:19;;;;;;;7.70;2.45;;;17.90;59.40;;;;;;5114366;28;20148;-74
2022/04/19 11:37:45;;;;;;;3.95;2.42;;;17.80;59.80;;;;;;5115840;28;20035;-75
2022/04/19 11:48:47;;;;;;;4.07;2.78;;;19.00;58.30;;;;;;5114648;28;20038;-75
2022/04/19 11:51:15;;;;;;;2.03;1.80;;;18.80;56.20;;;;;;5111077;28;20112;-75
2022/04/19 11:53:42;;;;;;;1.92;1.77;;;19.40;55.40;;;;;;5112924;27;20149;-74
2022/04/19 11:56:09;;;;;;;2.67;1.67;;;19.40;57.50;;;;;;5114627;28;20020;-74
2022/04/19 11:58:36;;;;;;;4.18;2.35;;;18.70;55.00;;;;;;5114659;28;20034;-74
2022/04/19 12:01:06;;;;;;;2.33;1.48;;;18.40;56.50;;;;;;5112743;28;20019;-75
2022/04/19 12:03:37;;;;;;;3.20;1.52;;;19.60;56.00;;;;;;5111374;28;20539;-75
2022/04/19 12:06:05;;;;;;;3.17;1.55;;;19.90;53.50;;;;;;5111397;28;20031;-75
2022/04/19 12:08:49;;;;;;;4.55;1.95;;;20.00;55.90;;;;;;5110681;28;20534;-74
2022/04/19 12:11:18;;;;;;;3.85;1.52;;;20.90;52.00;;;;;;5111952;28;20134;-75
2022/04/19 12:13:52;;;;;;;3.25;1.50;;;21.20;55.20;;;;;;5112011;28;20043;-74
2022/04/19 12:16:31;;;;;;;0.98;0.98;;;20.80;51.80;;;;;;5112264;28;20031;-74
2022/04/19 12:19:02;;;;;;;1.98;1.80;;;20.60;48.20;;;;;;5116083;28;20035;-74
2022/04/19 12:21:39;;;;;;;1.33;1.05;;;21.00;48.90;;;;;;5111864;28;20506;-77
2022/04/19 12:24:22;;;;;;;1.15;1.05;;;21.10;47.40;;;;;;5110470;28;20069;-75
2022/04/19 12:27:05;;;;;;;1.85;1.55;;;20.50;48.40;;;;;;5110213;28;20031;-75
2022/04/19 12:29:31;;;;;;;2.30;0.82;;;20.60;46.80;;;;;;5111153;28;20430;-79
2022/04/19 12:32:00;;;;;;;3.22;1.48;;;21.20;46.70;;;;;;5111227;28;20111;-82
2022/04/19 12:34:36;;;;;;;1.27;1.17;;;21.40;46.00;;;;;;5111819;28;20019;-75
2022/04/19 12:37:09;;;;;;;2.08;1.23;;;20.70;48.30;;;;;;5114202;28;20074;-74
2022/04/19 12:39:35;;;;;;;1.00;0.90;;;20.50;48.50;;;;;;5111066;28;20023;-74
2022/04/19 12:42:07;;;;;;;1.20;1.05;;;20.10;49.40;;;;;;5111585;28;20074;-76
2022/04/19 12:44:37;;;;;;;1.58;1.05;;;20.50;49.00;;;;;;5110371;28;20043;-74
2022/04/19 12:47:10;;;;;;;1.67;1.25;;;20.40;49.50;;;;;;5109928;28;20230;-75
2022/04/19 12:49:44;;;;;;;1.05;1.00;;;20.90;49.10;;;;;;5112213;28;20016;-74
2022/04/19 12:52:11;;;;;;;1.30;1.10;;;21.50;47.40;;;;;;5113458;28;20109;-74
2022/04/19 12:54:38;;;;;;;0.70;0.70;;;20.70;49.20;;;;;;5112315;28;20039;-74
2022/04/19 12:57:12;;;;;;;0.93;0.88;;;21.30;46.30;;;;;;5111920;28;20030;-76
2022/04/19 12:59:39;;;;;;;2.05;0.90;;;22.10;43.90;;;;;;5110777;28;20555;-74
2022/04/19 13:02:05;;;;;;;4.53;1.05;;;21.30;46.60;;;;;;5111667;28;20072;-74
2022/04/19 13:04:31;;;;;;;0.93;0.93;;;21.20;47.70;;;;;;5109742;28;20019;-76
2022/04/19 13:12:26;;;;;;;1.77;0.90;;;21.80;46.50;;;;;;5111155;28;20055;-75
2022/04/19 13:14:54;;;;;;;0.60;0.60;;;21.90;45.80;;;;;;5110805;28;20460;-75
2022/04/19 13:17:21;;;;;;;1.17;1.05;;;22.60;43.80;;;;;;5111315;28;20107;-75
2022/04/19 13:19:47;;;;;;;1.25;0.70;;;22.10;43.40;;;;;;5111098;28;20115;-75
2022/04/19 13:22:13;;;;;;;3.50;0.70;;;21.80;44.30;;;;;;5109835;28;20101;-75
2022/04/19 13:24:40;;;;;;;2.38;0.82;;;22.30;43.40;;;;;;5110488;28;20020;-77
2022/04/19 13:27:11;;;;;;;0.95;0.70;;;22.00;43.10;;;;;;5109380;28;20115;-74
2022/04/19 13:29:39;;;;;;;0.65;0.65;;;21.40;42.30;;;;;;5112333;28;20040;-74
2022/04/19 13:32:06;;;;;;;0.40;0.40;;;21.00;42.60;;;;;;5112204;28;20020;-74
2022/04/19 13:34:32;;;;;;;1.20;0.47;;;21.10;42.00;;;;;;5110843;28;20364;-79
2022/04/19 13:36:59;;;;;;;0.60;0.60;;;20.70;44.40;;;;;;5110777;28;20066;-75
2022/04/19 13:39:26;;;;;;;2.20;0.38;;;21.70;44.60;;;;;;5110237;27;20011;-75
2022/04/19 13:41:52;;;;;;;1.05;0.50;;;21.40;41.00;;;;;;5110283;28;20104;-75
2022/04/19 13:44:19;;;;;;;1.52;0.52;;;22.10;42.60;;;;;;5110280;28;20380;-75
2022/04/19 13:46:45;;;;;;;1.33;0.60;;;22.10;43.20;;;;;;5110707;28;20036;-76
2022/04/19 13:49:12;;;;;;;2.78;0.68;;;22.20;45.20;;;;;;5110417;28;20020;-74